sensor_id;sensor_type;location;lat;lon;timestamp;P1;durP1;ratioP1;P2;durP2;ratioP2
5195;SDS011;2617;51.006;12.436;2022-12-29T00:03:46;0.83;;;0.83;;
5195;SDS011;2617;51.006;12.436;2022-12-29T00:08:47;0.87;;;0.80;;
5195;SDS011;2617;51.006;12.436;2022-12-29T00:13:49;4.20;;;1.17;;
5195;SDS011;2617;51.006;12.436;2022-12-29T00:18:58;0.82;;;0.80;;
5195;SDS011;2617;51.006;12.436;2022-12-29T00:24:21;1.20;;;0.90;;
5195;SDS011;2617;51.006;12.436;2022-12-29T00:29:38;0.87;;;0.87;;
5195;SDS011;2617;51.006;12.436;2022-12-29T00:34:46;0.83;;;0.80;;
5195;SDS011;2617;51.006;12.436;2022-12-29T00:39:53;1.87;;;1.20;;
5195;SDS011;2617;51.006;12.436;2022-12-29T00:45:01;1.47;;;1.00;;
5195;SDS011;2617;51.006;12.436;2022-12-29T00:50:04;0.93;;;0.80;;
5195;SDS011;2617;51.006;12.436;2022-12-29T00:55:07;1.50;;;0.70;;
5195;SDS011;2617;51.006;12.436;2022-12-29T01:00:10;1.00;;;1.00;;
5195;SDS011;2617;51.006;12.436;2022-12-29T01:05:14;0.67;;;0.67;;
5195;SDS011;2617;51.006;12.436;2022-12-29T01:10:17;3.50;;;0.97;;
5195;SDS011;2617;51.006;12.436;2022-12-29T01:15:19;0.70;;;0.70;;
5195;SDS011;2617;51.006;12.436;2022-12-29T01:20:22;0.80;;;0.80;;
5195;SDS011;2617;51.006;12.436;2022-12-29T01:25:25;1.23;;;1.10;;
5195;SDS011;2617;51.006;12.436;2022-12-29T01:30:27;2.57;;;1.00;;
5195;SDS011;2617;51.006;12.436;2022-12-29T01:35:30;1.80;;;0.83;;
5195;SDS011;2617;51.006;12.436;2022-12-29T01:40:33;1.40;;;1.10;;
5195;SDS011;2617;51.006;12.436;2022-12-29T01:45:36;0.63;;;0.63;;
5195;SDS011;2617;51.006;12.436;2022-12-29T01:50:40;1.60;;;1.10;;
5195;SDS011;2617;51.006;12.436;2022-12-29T01:55:46;0.67;;;0.67;;
5195;SDS011;2617;51.006;12.436;2022-12-29T02:00:48;0.93;;;0.70;;
5195;SDS011;2617;51.006;12.436;2022-12-29T02:05:55;0.80;;;0.80;;
5195;SDS011;2617;51.006;12.436;2022-12-29T02:11:04;0.73;;;0.73;;
5195;SDS011;2617;51.006;12.436;2022-12-29T02:27:01;0.83;;;0.83;;
5195;SDS011;2617;51.006;12.436;2022-12-29T02:32:37;1.17;;;1.05;;
5195;SDS011;2617;51.006;12.436;2022-12-29T02:37:43;1.47;;;1.37;;
5195;SDS011;2617;51.006;12.436;2022-12-29T02:42:49;1.12;;;0.80;;
5195;SDS011;2617;51.006;12.436;2022-12-29T02:48:15;1.40;;;0.90;;
5195;SDS011;2617;51.006;12.436;2022-12-29T02:53:31;0.80;;;0.80;;
5195;SDS011;2617;51.006;12.436;2022-12-29T02:58:38;1.10;;;1.10;;
5195;SDS011;2617;51.006;12.436;2022-12-29T03:03:59;1.17;;;1.03;;
5195;SDS011;2617;51.006;12.436;2022-12-29T03:09:21;0.93;;;0.93;;
5195;SDS011;2617;51.006;12.436;2022-12-29T03:15:01;1.17;;;1.00;;
5195;SDS011;2617;51.006;12.436;2022-12-29T03:20:08;0.93;;;0.80;;
5195;SDS011;2617;51.006;12.436;2022-12-29T03:25:14;2.00;;;0.90;;
5195;SDS011;2617;51.006;12.436;2022-12-29T03:30:16;0.97;;;0.80;;
5195;SDS011;2617;51.006;12.436;2022-12-29T03:35:21;0.90;;;0.83;;
5195;SDS011;2617;51.006;12.436;2022-12-29T03:40:22;0.70;;;0.70;;
5195;SDS011;2617;51.006;12.436;2022-12-29T03:45:26;0.80;;;0.73;;
5195;SDS011;2617;51.006;12.436;2022-12-29T03:50:28;0.70;;;0.70;;
5195;SDS011;2617;51.006;12.436;2022-12-29T03:55:31;0.90;;;0.90;;
5195;SDS011;2617;51.006;12.436;2022-12-29T04:00:33;1.20;;;1.10;;
5195;SDS011;2617;51.006;12.436;2022-12-29T04:05:35;1.40;;;0.80;;
5195;SDS011;2617;51.006;12.436;2022-12-29T04:10:38;0.90;;;0.90;;
5195;SDS011;2617;51.006;12.436;2022-12-29T04:15:41;0.97;;;0.93;;
5195;SDS011;2617;51.006;12.436;2022-12-29T04:20:44;0.83;;;0.83;;
5195;SDS011;2617;51.006;12.436;2022-12-29T04:25:52;2.70;;;1.10;;
5195;SDS011;2617;51.006;12.436;2022-12-29T04:30:54;0.77;;;0.77;;
5195;SDS011;2617;51.006;12.436;2022-12-29T04:35:56;1.90;;;1.00;;
5195;SDS011;2617;51.006;12.436;2022-12-29T04:40:59;0.93;;;0.70;;
5195;SDS011;2617;51.006;12.436;2022-12-29T04:46:01;1.73;;;0.93;;
5195;SDS011;2617;51.006;12.436;2022-12-29T04:51:04;0.97;;;0.97;;
5195;SDS011;2617;51.006;12.436;2022-12-29T04:56:06;1.90;;;1.10;;
5195;SDS011;2617;51.006;12.436;2022-12-29T05:01:09;3.53;;;1.23;;
5195;SDS011;2617;51.006;12.436;2022-12-29T05:06:11;1.73;;;0.77;;
5195;SDS011;2617;51.006;12.436;2022-12-29T05:11:14;1.50;;;1.00;;
5195;SDS011;2617;51.006;12.436;2022-12-29T05:16:16;0.70;;;0.70;;
5195;SDS011;2617;51.006;12.436;2022-12-29T05:21:18;1.43;;;1.33;;
5195;SDS011;2617;51.006;12.436;2022-12-29T05:26:21;1.00;;;0.90;;
5195;SDS011;2617;51.006;12.436;2022-12-29T05:31:23;1.80;;;1.53;;
5195;SDS011;2617;51.006;12.436;2022-12-29T05:36:26;0.80;;;0.77;;
5195;SDS011;2617;51.006;12.436;2022-12-29T05:41:30;1.48;;;1.10;;
5195;SDS011;2617;51.006;12.436;2022-12-29T05:46:32;1.77;;;0.88;;
5195;SDS011;2617;51.006;12.436;2022-12-29T05:51:35;0.90;;;0.90;;
5195;SDS011;2617;51.006;12.436;2022-12-29T05:56:37;1.95;;;1.00;;
5195;SDS011;2617;51.006;12.436;2022-12-29T06:01:39;3.33;;;1.10;;
5195;SDS011;2617;51.006;12.436;2022-12-29T06:06:42;0.75;;;0.75;;
5195;SDS011;2617;51.006;12.436;2022-12-29T06:11:44;1.43;;;0.90;;
5195;SDS011;2617;51.006;12.436;2022-12-29T06:16:47;0.70;;;0.70;;
5195;SDS011;2617;51.006;12.436;2022-12-29T06:21:49;1.00;;;0.90;;
5195;SDS011;2617;51.006;12.436;2022-12-29T06:26:51;3.13;;;0.80;;
5195;SDS011;2617;51.006;12.436;2022-12-29T06:31:54;0.90;;;0.90;;
5195;SDS011;2617;51.006;12.436;2022-12-29T06:36:57;1.17;;;0.80;;
5195;SDS011;2617;51.006;12.436;2022-12-29T06:42:00;0.80;;;0.80;;
5195;SDS011;2617;51.006;12.436;2022-12-29T06:47:03;0.75;;;0.75;;
5195;SDS011;2617;51.006;12.436;2022-12-29T06:52:05;0.87;;;0.87;;
5195;SDS011;2617;51.006;12.436;2022-12-29T06:57:08;1.40;;;1.00;;
5195;SDS011;2617;51.006;12.436;2022-12-29T07:02:11;1.80;;;0.83;;
5195;SDS011;2617;51.006;12.436;2022-12-29T07:07:16;3.67;;;1.02;;
5195;SDS011;2617;51.006;12.436;2022-12-29T07:12:19;2.35;;;0.98;;
5195;SDS011;2617;51.006;12.436;2022-12-29T07:17:22;1.20;;;1.00;;
5195;SDS011;2617;51.006;12.436;2022-12-29T07:22:24;3.10;;;0.87;;
5195;SDS011;2617;51.006;12.436;2022-12-29T07:27:27;2.33;;;1.10;;
5195;SDS011;2617;51.006;12.436;2022-12-29T07:32:31;3.93;;;1.33;;
5195;SDS011;2617;51.006;12.436;2022-12-29T07:37:34;2.03;;;0.90;;
5195;SDS011;2617;51.006;12.436;2022-12-29T07:42:37;1.75;;;1.12;;
5195;SDS011;2617;51.006;12.436;2022-12-29T07:47:40;1.27;;;1.00;;
5195;SDS011;2617;51.006;12.436;2022-12-29T07:52:42;1.20;;;1.10;;
5195;SDS011;2617;51.006;12.436;2022-12-29T07:57:45;2.23;;;1.37;;
5195;SDS011;2617;51.006;12.436;2022-12-29T08:02:48;0.87;;;0.87;;
5195;SDS011;2617;51.006;12.436;2022-12-29T08:07:50;2.30;;;1.00;;
5195;SDS011;2617;51.006;12.436;2022-12-29T08:12:53;2.33;;;0.87;;
5195;SDS011;2617;51.006;12.436;2022-12-29T08:17:55;2.30;;;0.90;;
5195;SDS011;2617;51.006;12.436;2022-12-29T08:22:58;1.80;;;1.17;;
5195;SDS011;2617;51.006;12.436;2022-12-29T08:28:00;3.00;;;0.90;;
5195;SDS011;2617;51.006;12.436;2022-12-29T08:33:02;1.60;;;1.27;;
5195;SDS011;2617;51.006;12.436;2022-12-29T08:38:05;2.33;;;1.00;;
5195;SDS011;2617;51.006;12.436;2022-12-29T08:43:07;1.33;;;1.23;;
5195;SDS011;2617;51.006;12.436;2022-12-29T08:48:10;1.20;;;1.10;;
5195;SDS011;2617;51.006;12.436;2022-12-29T08:53:12;0.97;;;0.97;;
5195;SDS011;2617;51.006;12.436;2022-12-29T08:58:15;1.30;;;1.20;;
5195;SDS011;2617;51.006;12.436;2022-12-29T09:03:18;1.27;;;1.27;;
5195;SDS011;2617;51.006;12.436;2022-12-29T09:08:21;1.03;;;1.03;;
5195;SDS011;2617;51.006;12.436;2022-12-29T09:13:23;0.90;;;0.90;;
5195;SDS011;2617;51.006;12.436;2022-12-29T09:18:27;0.60;;;0.60;;
5195;SDS011;2617;51.006;12.436;2022-12-29T09:23:29;1.20;;;1.10;;
5195;SDS011;2617;51.006;12.436;2022-12-29T09:28:32;1.73;;;1.10;;
5195;SDS011;2617;51.006;12.436;2022-12-29T09:33:34;2.07;;;1.50;;
5195;SDS011;2617;51.006;12.436;2022-12-29T09:38:37;1.30;;;1.30;;
5195;SDS011;2617;51.006;12.436;2022-12-29T09:43:45;1.53;;;1.43;;
5195;SDS011;2617;51.006;12.436;2022-12-29T09:49:13;1.66;;;1.56;;
5195;SDS011;2617;51.006;12.436;2022-12-29T09:54:35;1.30;;;1.20;;
5195;SDS011;2617;51.006;12.436;2022-12-29T09:59:40;2.10;;;1.23;;
5195;SDS011;2617;51.006;12.436;2022-12-29T10:04:41;2.13;;;1.23;;
5195;SDS011;2617;51.006;12.436;2022-12-29T10:09:51;1.17;;;1.05;;
5195;SDS011;2617;51.006;12.436;2022-12-29T10:15:13;1.03;;;0.80;;
5195;SDS011;2617;51.006;12.436;2022-12-29T10:26:01;1.30;;;1.20;;
5195;SDS011;2617;51.006;12.436;2022-12-29T10:31:05;1.50;;;1.07;;
5195;SDS011;2617;51.006;12.436;2022-12-29T10:36:12;1.85;;;0.80;;
5195;SDS011;2617;51.006;12.436;2022-12-29T10:41:14;2.23;;;1.00;;
5195;SDS011;2617;51.006;12.436;2022-12-29T10:46:25;3.33;;;1.10;;
5195;SDS011;2617;51.006;12.436;2022-12-29T10:51:32;2.30;;;1.03;;
5195;SDS011;2617;51.006;12.436;2022-12-29T10:56:38;2.03;;;0.90;;
5195;SDS011;2617;51.006;12.436;2022-12-29T11:01:39;0.80;;;0.80;;
5195;SDS011;2617;51.006;12.436;2022-12-29T11:06:40;3.80;;;1.20;;
5195;SDS011;2617;51.006;12.436;2022-12-29T11:11:43;3.30;;;1.40;;
5195;SDS011;2617;51.006;12.436;2022-12-29T11:16:48;3.53;;;2.13;;
5195;SDS011;2617;51.006;12.436;2022-12-29T11:21:48;0.73;;;0.73;;
5195;SDS011;2617;51.006;12.436;2022-12-29T11:26:52;1.00;;;1.00;;
5195;SDS011;2617;51.006;12.436;2022-12-29T11:31:55;1.40;;;1.30;;
5195;SDS011;2617;51.006;12.436;2022-12-29T11:37:00;1.10;;;1.00;;
5195;SDS011;2617;51.006;12.436;2022-12-29T11:42:00;3.13;;;0.90;;
5195;SDS011;2617;51.006;12.436;2022-12-29T11:47:02;1.37;;;1.10;;
5195;SDS011;2617;51.006;12.436;2022-12-29T11:52:06;1.50;;;1.33;;
5195;SDS011;2617;51.006;12.436;2022-12-29T11:57:11;1.60;;;1.07;;
5195;SDS011;2617;51.006;12.436;2022-12-29T12:02:20;1.23;;;0.97;;
5195;SDS011;2617;51.006;12.436;2022-12-29T12:07:40;1.60;;;1.12;;
5195;SDS011;2617;51.006;12.436;2022-12-29T12:12:47;1.20;;;1.10;;
5195;SDS011;2617;51.006;12.436;2022-12-29T12:17:51;1.07;;;0.83;;
5195;SDS011;2617;51.006;12.436;2022-12-29T12:23:06;1.97;;;1.23;;
5195;SDS011;2617;51.006;12.436;2022-12-29T12:28:14;2.53;;;1.27;;
5195;SDS011;2617;51.006;12.436;2022-12-29T12:33:31;2.57;;;1.23;;
5195;SDS011;2617;51.006;12.436;2022-12-29T12:38:42;1.37;;;1.17;;
5195;SDS011;2617;51.006;12.436;2022-12-29T12:44:07;2.97;;;1.00;;
5195;SDS011;2617;51.006;12.436;2022-12-29T12:49:18;1.50;;;1.40;;
5195;SDS011;2617;51.006;12.436;2022-12-29T13:00:02;1.87;;;1.47;;
5195;SDS011;2617;51.006;12.436;2022-12-29T13:05:24;3.67;;;1.50;;
5195;SDS011;2617;51.006;12.436;2022-12-29T13:10:38;4.27;;;1.63;;
5195;SDS011;2617;51.006;12.436;2022-12-29T13:21:20;3.50;;;1.20;;
5195;SDS011;2617;51.006;12.436;2022-12-29T13:26:35;1.83;;;1.30;;
5195;SDS011;2617;51.006;12.436;2022-12-29T13:31:42;4.20;;;1.20;;
5195;SDS011;2617;51.006;12.436;2022-12-29T13:36:53;1.40;;;1.30;;
5195;SDS011;2617;51.006;12.436;2022-12-29T13:41:56;4.93;;;0.97;;
5195;SDS011;2617;51.006;12.436;2022-12-29T13:47:00;1.97;;;1.40;;
5195;SDS011;2617;51.006;12.436;2022-12-29T13:52:08;4.23;;;1.17;;
5195;SDS011;2617;51.006;12.436;2022-12-29T13:57:30;2.37;;;1.60;;
5195;SDS011;2617;51.006;12.436;2022-12-29T14:03:00;1.80;;;1.67;;
5195;SDS011;2617;51.006;12.436;2022-12-29T14:08:01;4.90;;;2.60;;
5195;SDS011;2617;51.006;12.436;2022-12-29T14:13:09;1.53;;;1.43;;
5195;SDS011;2617;51.006;12.436;2022-12-29T14:18:16;1.77;;;1.63;;
5195;SDS011;2617;51.006;12.436;2022-12-29T14:28:37;1.43;;;1.10;;
5195;SDS011;2617;51.006;12.436;2022-12-29T14:33:40;2.50;;;1.50;;
5195;SDS011;2617;51.006;12.436;2022-12-29T14:38:44;1.43;;;0.80;;
5195;SDS011;2617;51.006;12.436;2022-12-29T14:43:53;4.53;;;1.57;;
5195;SDS011;2617;51.006;12.436;2022-12-29T14:48:56;0.60;;;0.60;;
5195;SDS011;2617;51.006;12.436;2022-12-29T14:53:57;0.70;;;0.70;;
5195;SDS011;2617;51.006;12.436;2022-12-29T14:59:01;0.70;;;0.70;;
5195;SDS011;2617;51.006;12.436;2022-12-29T15:04:05;0.70;;;0.70;;
5195;SDS011;2617;51.006;12.436;2022-12-29T15:14:38;1.20;;;1.10;;
5195;SDS011;2617;51.006;12.436;2022-12-29T15:19:40;2.60;;;0.70;;
5195;SDS011;2617;51.006;12.436;2022-12-29T15:24:43;1.27;;;1.00;;
5195;SDS011;2617;51.006;12.436;2022-12-29T15:29:45;4.60;;;2.95;;
5195;SDS011;2617;51.006;12.436;2022-12-29T15:34:50;1.40;;;1.13;;
5195;SDS011;2617;51.006;12.436;2022-12-29T15:39:51;2.27;;;1.10;;
5195;SDS011;2617;51.006;12.436;2022-12-29T15:44:53;2.07;;;1.97;;
5195;SDS011;2617;51.006;12.436;2022-12-29T15:49:59;2.17;;;1.70;;
5195;SDS011;2617;51.006;12.436;2022-12-29T15:55:00;1.27;;;0.93;;
5195;SDS011;2617;51.006;12.436;2022-12-29T16:00:03;0.70;;;0.70;;
5195;SDS011;2617;51.006;12.436;2022-12-29T16:05:09;0.52;;;0.50;;
5195;SDS011;2617;51.006;12.436;2022-12-29T16:10:21;2.67;;;1.10;;
5195;SDS011;2617;51.006;12.436;2022-12-29T16:15:22;2.53;;;0.73;;
5195;SDS011;2617;51.006;12.436;2022-12-29T16:20:32;2.47;;;1.10;;
5195;SDS011;2617;51.006;12.436;2022-12-29T16:25:33;0.80;;;0.80;;
5195;SDS011;2617;51.006;12.436;2022-12-29T16:30:36;5.10;;;0.70;;
5195;SDS011;2617;51.006;12.436;2022-12-29T16:35:44;3.10;;;2.37;;
5195;SDS011;2617;51.006;12.436;2022-12-29T16:40:57;5.33;;;2.30;;
5195;SDS011;2617;51.006;12.436;2022-12-29T16:51:18;3.15;;;2.33;;
5195;SDS011;2617;51.006;12.436;2022-12-29T16:56:22;2.00;;;1.40;;
5195;SDS011;2617;51.006;12.436;2022-12-29T17:01:22;1.50;;;1.33;;
5195;SDS011;2617;51.006;12.436;2022-12-29T17:06:25;0.90;;;0.90;;
5195;SDS011;2617;51.006;12.436;2022-12-29T17:11:28;1.45;;;1.25;;
5195;SDS011;2617;51.006;12.436;2022-12-29T17:16:35;5.47;;;2.07;;
5195;SDS011;2617;51.006;12.436;2022-12-29T17:21:37;1.67;;;1.40;;
5195;SDS011;2617;51.006;12.436;2022-12-29T17:26:40;1.70;;;1.60;;
5195;SDS011;2617;51.006;12.436;2022-12-29T17:31:43;8.03;;;5.20;;
5195;SDS011;2617;51.006;12.436;2022-12-29T17:36:46;3.00;;;2.10;;
5195;SDS011;2617;51.006;12.436;2022-12-29T17:41:49;1.60;;;1.50;;
5195;SDS011;2617;51.006;12.436;2022-12-29T17:46:51;3.23;;;1.83;;
5195;SDS011;2617;51.006;12.436;2022-12-29T17:51:54;1.97;;;1.73;;
5195;SDS011;2617;51.006;12.436;2022-12-29T17:56:56;2.50;;;1.40;;
5195;SDS011;2617;51.006;12.436;2022-12-29T18:01:58;1.47;;;1.37;;
5195;SDS011;2617;51.006;12.436;2022-12-29T18:07:01;8.50;;;5.33;;
5195;SDS011;2617;51.006;12.436;2022-12-29T18:12:03;16.00;;;6.27;;
5195;SDS011;2617;51.006;12.436;2022-12-29T18:17:10;19.23;;;8.30;;
5195;SDS011;2617;51.006;12.436;2022-12-29T18:22:10;14.97;;;6.90;;
5195;SDS011;2617;51.006;12.436;2022-12-29T18:27:13;1.73;;;1.62;;
5195;SDS011;2617;51.006;12.436;2022-12-29T18:32:15;4.30;;;1.60;;
5195;SDS011;2617;51.006;12.436;2022-12-29T18:37:19;18.08;;;7.00;;
5195;SDS011;2617;51.006;12.436;2022-12-29T18:42:21;3.43;;;2.07;;
5195;SDS011;2617;51.006;12.436;2022-12-29T18:47:24;1.53;;;1.43;;
5195;SDS011;2617;51.006;12.436;2022-12-29T18:52:27;3.63;;;1.57;;
5195;SDS011;2617;51.006;12.436;2022-12-29T18:57:29;2.92;;;2.37;;
5195;SDS011;2617;51.006;12.436;2022-12-29T19:02:32;1.33;;;1.10;;
5195;SDS011;2617;51.006;12.436;2022-12-29T19:07:34;2.20;;;1.20;;
5195;SDS011;2617;51.006;12.436;2022-12-29T19:12:37;1.50;;;1.40;;
5195;SDS011;2617;51.006;12.436;2022-12-29T19:17:39;2.13;;;1.23;;
5195;SDS011;2617;51.006;12.436;2022-12-29T19:22:41;3.70;;;1.17;;
5195;SDS011;2617;51.006;12.436;2022-12-29T19:27:45;1.77;;;1.60;;
5195;SDS011;2617;51.006;12.436;2022-12-29T19:32:48;1.30;;;0.90;;
5195;SDS011;2617;51.006;12.436;2022-12-29T19:37:50;0.70;;;0.70;;
5195;SDS011;2617;51.006;12.436;2022-12-29T19:42:53;0.70;;;0.70;;
5195;SDS011;2617;51.006;12.436;2022-12-29T19:47:55;1.13;;;1.03;;
5195;SDS011;2617;51.006;12.436;2022-12-29T19:52:58;2.93;;;1.40;;
5195;SDS011;2617;51.006;12.436;2022-12-29T19:58:00;1.17;;;1.00;;
5195;SDS011;2617;51.006;12.436;2022-12-29T20:03:03;3.07;;;0.80;;
5195;SDS011;2617;51.006;12.436;2022-12-29T20:08:06;1.20;;;0.77;;
5195;SDS011;2617;51.006;12.436;2022-12-29T20:13:08;1.33;;;0.80;;
5195;SDS011;2617;51.006;12.436;2022-12-29T20:18:11;2.80;;;1.10;;
5195;SDS011;2617;51.006;12.436;2022-12-29T20:23:13;1.50;;;1.40;;
5195;SDS011;2617;51.006;12.436;2022-12-29T20:28:16;1.63;;;1.53;;
5195;SDS011;2617;51.006;12.436;2022-12-29T20:33:18;0.97;;;0.90;;
5195;SDS011;2617;51.006;12.436;2022-12-29T20:38:21;2.00;;;1.10;;
5195;SDS011;2617;51.006;12.436;2022-12-29T20:43:24;5.83;;;1.57;;
5195;SDS011;2617;51.006;12.436;2022-12-29T20:48:26;1.37;;;1.17;;
5195;SDS011;2617;51.006;12.436;2022-12-29T20:53:29;0.80;;;0.80;;
5195;SDS011;2617;51.006;12.436;2022-12-29T20:58:31;1.60;;;1.00;;
5195;SDS011;2617;51.006;12.436;2022-12-29T21:03:34;2.13;;;1.47;;
5195;SDS011;2617;51.006;12.436;2022-12-29T21:08:36;3.43;;;1.27;;
5195;SDS011;2617;51.006;12.436;2022-12-29T21:13:38;1.50;;;1.37;;
5195;SDS011;2617;51.006;12.436;2022-12-29T21:18:42;1.30;;;1.10;;
5195;SDS011;2617;51.006;12.436;2022-12-29T21:23:45;1.58;;;0.88;;
5195;SDS011;2617;51.006;12.436;2022-12-29T21:28:49;1.30;;;0.80;;
5195;SDS011;2617;51.006;12.436;2022-12-29T21:33:52;1.07;;;0.70;;
5195;SDS011;2617;51.006;12.436;2022-12-29T21:38:54;0.75;;;0.75;;
5195;SDS011;2617;51.006;12.436;2022-12-29T21:43:57;1.90;;;0.90;;
5195;SDS011;2617;51.006;12.436;2022-12-29T21:49:06;2.53;;;1.00;;
5195;SDS011;2617;51.006;12.436;2022-12-29T21:54:08;0.90;;;0.90;;
5195;SDS011;2617;51.006;12.436;2022-12-29T21:59:17;0.93;;;0.77;;
5195;SDS011;2617;51.006;12.436;2022-12-29T22:04:24;0.73;;;0.73;;
5195;SDS011;2617;51.006;12.436;2022-12-29T22:09:33;1.43;;;1.07;;
5195;SDS011;2617;51.006;12.436;2022-12-29T22:14:41;1.27;;;1.00;;
5195;SDS011;2617;51.006;12.436;2022-12-29T22:19:43;1.23;;;1.10;;
5195;SDS011;2617;51.006;12.436;2022-12-29T22:24:46;2.90;;;1.20;;
5195;SDS011;2617;51.006;12.436;2022-12-29T22:29:49;1.10;;;1.00;;
5195;SDS011;2617;51.006;12.436;2022-12-29T22:34:52;2.20;;;0.70;;
5195;SDS011;2617;51.006;12.436;2022-12-29T22:39:54;3.90;;;1.10;;
5195;SDS011;2617;51.006;12.436;2022-12-29T22:44:57;3.73;;;1.10;;
5195;SDS011;2617;51.006;12.436;2022-12-29T22:50:00;1.00;;;0.90;;
5195;SDS011;2617;51.006;12.436;2022-12-29T22:55:03;1.37;;;0.83;;
5195;SDS011;2617;51.006;12.436;2022-12-29T23:00:06;1.00;;;0.90;;
5195;SDS011;2617;51.006;12.436;2022-12-29T23:05:10;2.72;;;1.02;;
5195;SDS011;2617;51.006;12.436;2022-12-29T23:10:13;4.37;;;0.90;;
5195;SDS011;2617;51.006;12.436;2022-12-29T23:15:15;1.10;;;0.90;;
5195;SDS011;2617;51.006;12.436;2022-12-29T23:20:18;1.23;;;1.13;;
5195;SDS011;2617;51.006;12.436;2022-12-29T23:25:20;2.40;;;0.80;;
5195;SDS011;2617;51.006;12.436;2022-12-29T23:30:23;3.50;;;0.80;;
5195;SDS011;2617;51.006;12.436;2022-12-29T23:35:26;3.90;;;1.00;;
5195;SDS011;2617;51.006;12.436;2022-12-29T23:40:28;0.80;;;0.80;;
5195;SDS011;2617;51.006;12.436;2022-12-29T23:45:34;3.40;;;1.27;;
5195;SDS011;2617;51.006;12.436;2022-12-29T23:50:37;1.33;;;0.90;;
5195;SDS011;2617;51.006;12.436;2022-12-29T23:55:40;0.93;;;0.83;;
